TKJ9FS LTAI-LTFJ
Flight info
| Callsign | TKJ9FS |
|---|---|
| Flight time | 1h 0m |
| Altitude | 36000 |
| Route | EKSEN UL610 ETAMP |
| Aircraft | A321/M-SDE3FGHIRWY/LB1 |
Departure
| Time | 2026-05-06 01:37 |
|---|---|
| Airport | Antalya International Airport (LTAI) |
Arrival
| Time | 2026-05-06 02:37 |
|---|---|
| Airport | Istanbul Sabiha Gökçen International Airport (LTFJ) |
| Time | Latitude | Longitude | Altitude | Speed | Heading |
|---|---|---|---|---|---|
| 2026-05-06 01:15 | 36.91472 | 30.80074 | 191 ft | 0 kts | 7° |
| 2026-05-06 01:19 | 36.91449 | 30.80071 | 198 ft | 4 kts | 4° |
| 2026-05-06 01:20 | 36.91428 | 30.80069 | 191 ft | 3 kts | 6° |
| 2026-05-06 01:20 | 36.91402 | 30.80069 | 191 ft | 4 kts | 336° |
| 2026-05-06 01:20 | 36.91390 | 30.80087 | 196 ft | 3 kts | 278° |
| 2026-05-06 01:20 | 36.91387 | 30.80110 | 191 ft | 0 kts | 278° |
| 2026-05-06 01:24 | 36.91387 | 30.80104 | 194 ft | 1 kts | 266° |
| 2026-05-06 01:24 | 36.91382 | 30.80090 | 191 ft | 2 kts | 249° |
| 2026-05-06 01:25 | 36.91369 | 30.80069 | 191 ft | 4 kts | 231° |
| 2026-05-06 01:25 | 36.91349 | 30.80038 | 202 ft | 5 kts | 230° |
| 2026-05-06 01:25 | 36.91322 | 30.80000 | 191 ft | 7 kts | 228° |
| 2026-05-06 01:25 | 36.91288 | 30.79953 | 201 ft | 8 kts | 227° |
| 2026-05-06 01:26 | 36.91239 | 30.79912 | 196 ft | 9 kts | 204° |
| 2026-05-06 01:26 | 36.91177 | 30.79881 | 191 ft | 10 kts | 195° |
| 2026-05-06 01:26 | 36.91104 | 30.79865 | 198 ft | 11 kts | 189° |
| 2026-05-06 01:26 | 36.91030 | 30.79851 | 202 ft | 9 kts | 188° |
| 2026-05-06 01:27 | 36.90967 | 30.79850 | 199 ft | 10 kts | 185° |
| 2026-05-06 01:27 | 36.90906 | 30.79815 | 207 ft | 10 kts | 238° |
| 2026-05-06 01:27 | 36.90857 | 30.79750 | 202 ft | 10 kts | 198° |
| 2026-05-06 01:27 | 36.90779 | 30.79736 | 199 ft | 12 kts | 192° |
| 2026-05-06 01:28 | 36.90700 | 30.79697 | 202 ft | 13 kts | 210° |
| 2026-05-06 01:28 | 36.90648 | 30.79656 | 200 ft | 0 kts | 218° |
| 2026-05-06 01:28 | 36.90641 | 30.79649 | 191 ft | 2 kts | 219° |
| 2026-05-06 01:28 | 36.90627 | 30.79632 | 204 ft | 3 kts | 227° |
| 2026-05-06 01:29 | 36.90606 | 30.79606 | 203 ft | 5 kts | 220° |
| 2026-05-06 01:29 | 36.90574 | 30.79576 | 191 ft | 7 kts | 211° |
| 2026-05-06 01:29 | 36.90525 | 30.79558 | 201 ft | 8 kts | 188° |
| 2026-05-06 01:29 | 36.90465 | 30.79549 | 191 ft | 9 kts | 187° |
| 2026-05-06 01:30 | 36.90395 | 30.79539 | 201 ft | 11 kts | 186° |
| 2026-05-06 01:30 | 36.90317 | 30.79529 | 198 ft | 12 kts | 185° |
| 2026-05-06 01:30 | 36.90229 | 30.79517 | 191 ft | 13 kts | 186° |
| 2026-05-06 01:30 | 36.90131 | 30.79504 | 195 ft | 15 kts | 186° |
| 2026-05-06 01:31 | 36.90026 | 30.79489 | 194 ft | 16 kts | 186° |
| 2026-05-06 01:31 | 36.89913 | 30.79474 | 202 ft | 17 kts | 186° |
| 2026-05-06 01:31 | 36.89802 | 30.79459 | 204 ft | 16 kts | 186° |
| 2026-05-06 01:31 | 36.89694 | 30.79445 | 196 ft | 16 kts | 186° |
| 2026-05-06 01:32 | 36.89582 | 30.79429 | 195 ft | 16 kts | 187° |
| 2026-05-06 01:32 | 36.89470 | 30.79413 | 203 ft | 17 kts | 186° |
| 2026-05-06 01:32 | 36.89351 | 30.79396 | 196 ft | 18 kts | 186° |
| 2026-05-06 01:32 | 36.89224 | 30.79380 | 195 ft | 19 kts | 186° |
| 2026-05-06 01:33 | 36.89090 | 30.79362 | 195 ft | 20 kts | 186° |
| 2026-05-06 01:33 | 36.88951 | 30.79341 | 199 ft | 21 kts | 187° |
| 2026-05-06 01:33 | 36.88824 | 30.79324 | 192 ft | 15 kts | 186° |
| 2026-05-06 01:33 | 36.88730 | 30.79311 | 199 ft | 10 kts | 186° |
| 2026-05-06 01:34 | 36.88657 | 30.79295 | 196 ft | 11 kts | 202° |
| 2026-05-06 01:34 | 36.88636 | 30.79211 | 200 ft | 11 kts | 274° |
| 2026-05-06 01:34 | 36.88637 | 30.79201 | 192 ft | 0 kts | 276° |
| 2026-05-06 01:35 | 36.88638 | 30.79191 | 192 ft | 2 kts | 276° |
| 2026-05-06 01:35 | 36.88640 | 30.79164 | 202 ft | 4 kts | 276° |
| 2026-05-06 01:35 | 36.88646 | 30.79121 | 198 ft | 6 kts | 285° |
| 2026-05-06 01:35 | 36.88677 | 30.79090 | 203 ft | 6 kts | 342° |
| 2026-05-06 01:36 | 36.88722 | 30.79090 | 199 ft | 8 kts | 4° |
| 2026-05-06 01:36 | 36.88958 | 30.79118 | 194 ft | 71 kts | 7° |
| 2026-05-06 01:36 | 36.89683 | 30.79222 | 204 ft | 135 kts | 6° |
| 2026-05-06 01:36 | 36.90770 | 30.79368 | 368 ft | 169 kts | 6° |
| 2026-05-06 01:37 | 36.91951 | 30.79534 | 1003 ft | 172 kts | 3° |
| 2026-05-06 01:37 | 36.92742 | 30.79492 | 1477 ft | 173 kts | 354° |
| 2026-05-06 01:37 | 36.93994 | 30.79257 | 1844 ft | 192 kts | 350° |
| 2026-05-06 01:37 | 36.95385 | 30.78951 | 2043 ft | 213 kts | 349° |
| 2026-05-06 01:38 | 36.96886 | 30.78626 | 2351 ft | 223 kts | 349° |
| 2026-05-06 01:38 | 36.98423 | 30.78310 | 2973 ft | 223 kts | 350° |
| 2026-05-06 01:38 | 36.99939 | 30.78012 | 3688 ft | 222 kts | 349° |
| 2026-05-06 01:38 | 37.01526 | 30.77683 | 3996 ft | 241 kts | 351° |
| 2026-05-06 01:39 | 37.03239 | 30.77424 | 4417 ft | 255 kts | 353° |
| 2026-05-06 01:39 | 37.05020 | 30.77211 | 5130 ft | 259 kts | 353° |
| 2026-05-06 01:39 | 37.06827 | 30.77007 | 5872 ft | 262 kts | 353° |
| 2026-05-06 01:39 | 37.08658 | 30.76803 | 6628 ft | 266 kts | 353° |
| 2026-05-06 01:40 | 37.10507 | 30.76594 | 7380 ft | 268 kts | 353° |
| 2026-05-06 01:40 | 37.12371 | 30.76378 | 8123 ft | 271 kts | 353° |
| 2026-05-06 01:40 | 37.14254 | 30.76156 | 8866 ft | 273 kts | 353° |
| 2026-05-06 01:40 | 37.16158 | 30.75927 | 9589 ft | 276 kts | 353° |
| 2026-05-06 01:41 | 37.18071 | 30.75694 | 10344 ft | 277 kts | 352° |
| 2026-05-06 01:41 | 37.19985 | 30.75462 | 11133 ft | 276 kts | 352° |
| 2026-05-06 01:41 | 37.21896 | 30.75235 | 11858 ft | 276 kts | 351° |
| 2026-05-06 01:41 | 37.23805 | 30.75006 | 12615 ft | 275 kts | 351° |
| 2026-05-06 01:42 | 37.25707 | 30.74775 | 13373 ft | 275 kts | 350° |
| 2026-05-06 01:42 | 37.27613 | 30.74540 | 14046 ft | 276 kts | 350° |
| 2026-05-06 01:42 | 37.29529 | 30.74305 | 14672 ft | 278 kts | 350° |
| 2026-05-06 01:42 | 37.31457 | 30.74071 | 15284 ft | 280 kts | 350° |
| 2026-05-06 01:43 | 37.33403 | 30.73835 | 15905 ft | 282 kts | 350° |
| 2026-05-06 01:43 | 37.35364 | 30.73597 | 16512 ft | 284 kts | 350° |
| 2026-05-06 01:43 | 37.37335 | 30.73359 | 17125 ft | 286 kts | 350° |
| 2026-05-06 01:43 | 37.39322 | 30.73117 | 17733 ft | 287 kts | 350° |
| 2026-05-06 01:44 | 37.41313 | 30.72874 | 18330 ft | 288 kts | 350° |
| 2026-05-06 01:44 | 37.43321 | 30.72629 | 18878 ft | 291 kts | 350° |
| 2026-05-06 01:44 | 37.45343 | 30.72384 | 19387 ft | 293 kts | 350° |
| 2026-05-06 01:44 | 37.47379 | 30.72139 | 19928 ft | 296 kts | 350° |
| 2026-05-06 01:45 | 37.49428 | 30.71893 | 20440 ft | 297 kts | 350° |
| 2026-05-06 01:45 | 37.51488 | 30.71642 | 20929 ft | 299 kts | 350° |
| 2026-05-06 01:45 | 37.53565 | 30.71385 | 21405 ft | 301 kts | 350° |
| 2026-05-06 01:45 | 37.55660 | 30.71125 | 21875 ft | 303 kts | 350° |
| 2026-05-06 01:46 | 37.57769 | 30.70864 | 22318 ft | 305 kts | 350° |
| 2026-05-06 01:46 | 37.59883 | 30.70607 | 22773 ft | 307 kts | 351° |
| 2026-05-06 01:46 | 37.62020 | 30.70350 | 23215 ft | 308 kts | 351° |
| 2026-05-06 01:46 | 37.64160 | 30.70092 | 23637 ft | 311 kts | 351° |
| 2026-05-06 01:47 | 37.66323 | 30.69830 | 24066 ft | 313 kts | 351° |
| 2026-05-06 01:47 | 37.68502 | 30.69564 | 24493 ft | 315 kts | 351° |
| 2026-05-06 01:47 | 37.70692 | 30.69293 | 24918 ft | 317 kts | 351° |
| 2026-05-06 01:47 | 37.72867 | 30.69023 | 25354 ft | 319 kts | 351° |
| 2026-05-06 01:48 | 37.75078 | 30.68749 | 25770 ft | 321 kts | 351° |
| 2026-05-06 01:48 | 37.77304 | 30.68474 | 26208 ft | 322 kts | 351° |
| 2026-05-06 01:48 | 37.79533 | 30.68199 | 26621 ft | 323 kts | 351° |
| 2026-05-06 01:48 | 37.81781 | 30.67924 | 26994 ft | 325 kts | 351° |
| 2026-05-06 01:49 | 37.84036 | 30.67648 | 27401 ft | 326 kts | 351° |
| 2026-05-06 01:49 | 37.86299 | 30.67369 | 27781 ft | 328 kts | 351° |
| 2026-05-06 01:49 | 37.88545 | 30.66917 | 28139 ft | 327 kts | 343° |
| 2026-05-06 01:49 | 37.90727 | 30.66094 | 28479 ft | 327 kts | 337° |
| 2026-05-06 01:50 | 37.92821 | 30.64976 | 28836 ft | 327 kts | 335° |
| 2026-05-06 01:50 | 37.94920 | 30.63826 | 29178 ft | 329 kts | 335° |
| 2026-05-06 01:50 | 37.97025 | 30.62677 | 29507 ft | 330 kts | 335° |
| 2026-05-06 01:50 | 37.99134 | 30.61527 | 29897 ft | 329 kts | 335° |
| 2026-05-06 01:51 | 38.01232 | 30.60384 | 30332 ft | 328 kts | 335° |
| 2026-05-06 01:51 | 38.03321 | 30.59245 | 30710 ft | 327 kts | 336° |
| 2026-05-06 01:51 | 38.05409 | 30.58104 | 31070 ft | 326 kts | 336° |
| 2026-05-06 01:51 | 38.07486 | 30.56966 | 31471 ft | 324 kts | 335° |
| 2026-05-06 01:52 | 38.09545 | 30.55835 | 31899 ft | 321 kts | 335° |
| 2026-05-06 01:52 | 38.11587 | 30.54714 | 32296 ft | 319 kts | 335° |
| 2026-05-06 01:52 | 38.13623 | 30.53595 | 32601 ft | 319 kts | 334° |
| 2026-05-06 01:52 | 38.15662 | 30.52474 | 32901 ft | 319 kts | 334° |
| 2026-05-06 01:53 | 38.17698 | 30.51354 | 33163 ft | 320 kts | 334° |
| 2026-05-06 01:53 | 38.19740 | 30.50231 | 33402 ft | 320 kts | 334° |
| 2026-05-06 01:53 | 38.21786 | 30.49106 | 33659 ft | 321 kts | 334° |
| 2026-05-06 01:53 | 38.23837 | 30.47976 | 33950 ft | 322 kts | 334° |
| 2026-05-06 01:54 | 38.25897 | 30.46840 | 34174 ft | 322 kts | 334° |
| 2026-05-06 01:54 | 38.27955 | 30.45705 | 34379 ft | 324 kts | 334° |
| 2026-05-06 01:54 | 38.30026 | 30.44562 | 34553 ft | 325 kts | 333° |
| 2026-05-06 01:54 | 38.32108 | 30.43413 | 34716 ft | 327 kts | 333° |
| 2026-05-06 01:55 | 38.34208 | 30.42252 | 34885 ft | 329 kts | 333° |
| 2026-05-06 01:55 | 38.36310 | 30.41088 | 35049 ft | 331 kts | 333° |
| 2026-05-06 01:55 | 38.38424 | 30.39916 | 35214 ft | 332 kts | 333° |
| 2026-05-06 01:55 | 38.40551 | 30.38741 | 35383 ft | 334 kts | 333° |
| 2026-05-06 01:56 | 38.42688 | 30.37561 | 35518 ft | 336 kts | 333° |
| 2026-05-06 01:56 | 38.44843 | 30.36368 | 35658 ft | 338 kts | 333° |
| 2026-05-06 01:56 | 38.47006 | 30.35169 | 35802 ft | 340 kts | 333° |
| 2026-05-06 01:56 | 38.49178 | 30.33961 | 35971 ft | 341 kts | 333° |
| 2026-05-06 01:57 | 38.53559 | 30.31528 | 36080 ft | 344 kts | 333° |
| 2026-05-06 01:57 | 38.57947 | 30.29092 | 35955 ft | 343 kts | 333° |
| 2026-05-06 01:58 | 38.60135 | 30.27880 | 35529 ft | 342 kts | 333° |
| 2026-05-06 01:58 | 38.62310 | 30.26680 | 35151 ft | 339 kts | 334° |
| 2026-05-06 01:58 | 38.64463 | 30.25489 | 34805 ft | 335 kts | 334° |
| 2026-05-06 01:58 | 38.66591 | 30.24308 | 34442 ft | 331 kts | 334° |
| 2026-05-06 01:59 | 38.68686 | 30.23142 | 34109 ft | 327 kts | 334° |
| 2026-05-06 01:59 | 38.70764 | 30.21984 | 33793 ft | 324 kts | 334° |
| 2026-05-06 01:59 | 38.72818 | 30.20839 | 33468 ft | 321 kts | 334° |
| 2026-05-06 01:59 | 38.74856 | 30.19702 | 33100 ft | 319 kts | 335° |
| 2026-05-06 02:00 | 38.76885 | 30.18570 | 32740 ft | 317 kts | 335° |
| 2026-05-06 02:00 | 38.78903 | 30.17444 | 32379 ft | 316 kts | 335° |
| 2026-05-06 02:00 | 38.80915 | 30.16322 | 32119 ft | 314 kts | 335° |
| 2026-05-06 02:00 | 38.82919 | 30.15201 | 31834 ft | 315 kts | 335° |
| 2026-05-06 02:01 | 38.84859 | 30.13912 | 31590 ft | 316 kts | 328° |
| 2026-05-06 02:01 | 38.86712 | 30.12386 | 31337 ft | 317 kts | 328° |
| 2026-05-06 02:01 | 38.88573 | 30.10841 | 31091 ft | 319 kts | 328° |
| 2026-05-06 02:01 | 38.90442 | 30.09280 | 30838 ft | 322 kts | 328° |
| 2026-05-06 02:02 | 38.92320 | 30.07710 | 30588 ft | 323 kts | 328° |
| 2026-05-06 02:02 | 38.94205 | 30.06135 | 30337 ft | 322 kts | 329° |
| 2026-05-06 02:02 | 38.96084 | 30.04568 | 30083 ft | 322 kts | 329° |
| 2026-05-06 02:02 | 38.97961 | 30.03006 | 29825 ft | 322 kts | 329° |
| 2026-05-06 02:03 | 38.99836 | 30.01445 | 29586 ft | 321 kts | 329° |
| 2026-05-06 02:03 | 39.01708 | 29.99886 | 29336 ft | 320 kts | 329° |
| 2026-05-06 02:03 | 39.03564 | 29.98334 | 29085 ft | 317 kts | 329° |
| 2026-05-06 02:03 | 39.05409 | 29.96789 | 28830 ft | 315 kts | 329° |
| 2026-05-06 02:04 | 39.07241 | 29.95252 | 28584 ft | 314 kts | 329° |
| 2026-05-06 02:04 | 39.09068 | 29.93719 | 28334 ft | 313 kts | 329° |
| 2026-05-06 02:04 | 39.10887 | 29.92191 | 28083 ft | 311 kts | 329° |
| 2026-05-06 02:04 | 39.12691 | 29.90675 | 27834 ft | 310 kts | 329° |
| 2026-05-06 02:05 | 39.14498 | 29.89157 | 27582 ft | 309 kts | 329° |
| 2026-05-06 02:05 | 39.16298 | 29.87644 | 27332 ft | 309 kts | 329° |
| 2026-05-06 02:05 | 39.18072 | 29.86153 | 27079 ft | 308 kts | 329° |
| 2026-05-06 02:05 | 39.19862 | 29.84646 | 26834 ft | 307 kts | 329° |
| 2026-05-06 02:06 | 39.21645 | 29.83144 | 26583 ft | 305 kts | 329° |
| 2026-05-06 02:06 | 39.23416 | 29.81652 | 26337 ft | 304 kts | 329° |
| 2026-05-06 02:06 | 39.25207 | 29.80145 | 26080 ft | 303 kts | 329° |
| 2026-05-06 02:06 | 39.26946 | 29.78681 | 25837 ft | 302 kts | 329° |
| 2026-05-06 02:07 | 39.28700 | 29.77202 | 25583 ft | 300 kts | 329° |
| 2026-05-06 02:07 | 39.30443 | 29.75731 | 25331 ft | 299 kts | 329° |
| 2026-05-06 02:07 | 39.32182 | 29.74260 | 25080 ft | 298 kts | 329° |
| 2026-05-06 02:07 | 39.33907 | 29.72802 | 24827 ft | 296 kts | 329° |
| 2026-05-06 02:08 | 39.35630 | 29.71348 | 24577 ft | 296 kts | 329° |
| 2026-05-06 02:08 | 39.37354 | 29.69890 | 24329 ft | 296 kts | 329° |
| 2026-05-06 02:08 | 39.39068 | 29.68440 | 24079 ft | 294 kts | 329° |
| 2026-05-06 02:08 | 39.40781 | 29.66989 | 23829 ft | 293 kts | 329° |
| 2026-05-06 02:09 | 39.42482 | 29.65547 | 23573 ft | 292 kts | 329° |
| 2026-05-06 02:09 | 39.44174 | 29.64110 | 23328 ft | 291 kts | 329° |
| 2026-05-06 02:09 | 39.45862 | 29.62673 | 23074 ft | 289 kts | 329° |
| 2026-05-06 02:09 | 39.47543 | 29.61243 | 22825 ft | 289 kts | 329° |
| 2026-05-06 02:10 | 39.49220 | 29.59819 | 22575 ft | 288 kts | 329° |
| 2026-05-06 02:10 | 39.50894 | 29.58396 | 22324 ft | 287 kts | 329° |
| 2026-05-06 02:10 | 39.52560 | 29.56979 | 22078 ft | 286 kts | 329° |
| 2026-05-06 02:10 | 39.54217 | 29.55568 | 21823 ft | 284 kts | 329° |
| 2026-05-06 02:11 | 39.55863 | 29.54161 | 21572 ft | 284 kts | 329° |
| 2026-05-06 02:11 | 39.57512 | 29.52754 | 21320 ft | 283 kts | 329° |
| 2026-05-06 02:11 | 39.59153 | 29.51358 | 21063 ft | 282 kts | 329° |
| 2026-05-06 02:11 | 39.60792 | 29.49965 | 20823 ft | 281 kts | 329° |
| 2026-05-06 02:12 | 39.62423 | 29.48577 | 20574 ft | 280 kts | 329° |
| 2026-05-06 02:12 | 39.64045 | 29.47195 | 20321 ft | 278 kts | 329° |
| 2026-05-06 02:12 | 39.65659 | 29.45814 | 20068 ft | 277 kts | 329° |
| 2026-05-06 02:12 | 39.67264 | 29.44437 | 19818 ft | 277 kts | 329° |
| 2026-05-06 02:13 | 39.68873 | 29.43058 | 19567 ft | 276 kts | 329° |
| 2026-05-06 02:13 | 39.70471 | 29.41689 | 19313 ft | 275 kts | 329° |
| 2026-05-06 02:13 | 39.72068 | 29.40319 | 19056 ft | 274 kts | 329° |
| 2026-05-06 02:13 | 39.73659 | 29.38953 | 18813 ft | 272 kts | 329° |
| 2026-05-06 02:14 | 39.75236 | 29.37601 | 18571 ft | 271 kts | 329° |
| 2026-05-06 02:14 | 39.76808 | 29.36253 | 18314 ft | 270 kts | 329° |
| 2026-05-06 02:14 | 39.78376 | 29.34909 | 18064 ft | 269 kts | 329° |
| 2026-05-06 02:14 | 39.79935 | 29.33572 | 17813 ft | 268 kts | 329° |
| 2026-05-06 02:15 | 39.81486 | 29.32240 | 17562 ft | 267 kts | 329° |
| 2026-05-06 02:15 | 39.83027 | 29.30912 | 17311 ft | 265 kts | 329° |
| 2026-05-06 02:15 | 39.84565 | 29.29589 | 17060 ft | 265 kts | 329° |
| 2026-05-06 02:15 | 39.86102 | 29.28267 | 16812 ft | 265 kts | 329° |
| 2026-05-06 02:16 | 39.87636 | 29.26943 | 16559 ft | 264 kts | 328° |
| 2026-05-06 02:16 | 39.89141 | 29.25644 | 16309 ft | 263 kts | 328° |
| 2026-05-06 02:16 | 39.90664 | 29.24330 | 16060 ft | 262 kts | 328° |
| 2026-05-06 02:16 | 39.92178 | 29.23023 | 15803 ft | 262 kts | 329° |
| 2026-05-06 02:17 | 39.93696 | 29.21709 | 15545 ft | 261 kts | 329° |
| 2026-05-06 02:17 | 39.95192 | 29.20411 | 15319 ft | 256 kts | 329° |
| 2026-05-06 02:17 | 39.96661 | 29.19137 | 15054 ft | 252 kts | 329° |
| 2026-05-06 02:17 | 39.98112 | 29.17883 | 14799 ft | 248 kts | 329° |
| 2026-05-06 02:18 | 39.99545 | 29.16644 | 14549 ft | 246 kts | 329° |
| 2026-05-06 02:18 | 40.00964 | 29.15420 | 14296 ft | 243 kts | 329° |
| 2026-05-06 02:18 | 40.02362 | 29.14211 | 14043 ft | 239 kts | 330° |
| 2026-05-06 02:18 | 40.03744 | 29.13016 | 13792 ft | 237 kts | 330° |
| 2026-05-06 02:19 | 40.05114 | 29.11829 | 13541 ft | 236 kts | 330° |
| 2026-05-06 02:19 | 40.06473 | 29.10649 | 13289 ft | 235 kts | 330° |
| 2026-05-06 02:19 | 40.07830 | 29.09471 | 13038 ft | 234 kts | 330° |
| 2026-05-06 02:19 | 40.09184 | 29.08297 | 12789 ft | 233 kts | 330° |
| 2026-05-06 02:20 | 40.11868 | 29.05965 | 12288 ft | 231 kts | 330° |
| 2026-05-06 02:20 | 40.13205 | 29.04804 | 12032 ft | 231 kts | 330° |
| 2026-05-06 02:20 | 40.14542 | 29.03644 | 11787 ft | 230 kts | 330° |
| 2026-05-06 02:21 | 40.15873 | 29.02491 | 11536 ft | 229 kts | 330° |
| 2026-05-06 02:21 | 40.17199 | 29.01342 | 11285 ft | 229 kts | 330° |
| 2026-05-06 02:21 | 40.18520 | 29.00195 | 11035 ft | 228 kts | 330° |
| 2026-05-06 02:21 | 40.19831 | 28.99050 | 10787 ft | 226 kts | 330° |
| 2026-05-06 02:22 | 40.21137 | 28.97912 | 10531 ft | 225 kts | 330° |
| 2026-05-06 02:22 | 40.22436 | 28.96778 | 10276 ft | 225 kts | 330° |
| 2026-05-06 02:22 | 40.23299 | 28.96023 | 10113 ft | 225 kts | 330° |
| 2026-05-06 02:22 | 40.24593 | 28.94889 | 9911 ft | 223 kts | 330° |
| 2026-05-06 02:23 | 40.25885 | 28.93758 | 9787 ft | 224 kts | 329° |
| 2026-05-06 02:23 | 40.27180 | 28.92626 | 9662 ft | 223 kts | 330° |
| 2026-05-06 02:23 | 40.28472 | 28.91499 | 9539 ft | 223 kts | 330° |
| 2026-05-06 02:23 | 40.29760 | 28.90373 | 9411 ft | 222 kts | 330° |
| 2026-05-06 02:24 | 40.31042 | 28.89250 | 9283 ft | 222 kts | 330° |
| 2026-05-06 02:24 | 40.32321 | 28.88128 | 9158 ft | 222 kts | 330° |
| 2026-05-06 02:24 | 40.33600 | 28.87007 | 9038 ft | 221 kts | 330° |
| 2026-05-06 02:24 | 40.34878 | 28.85884 | 8908 ft | 221 kts | 330° |
| 2026-05-06 02:25 | 40.36151 | 28.84769 | 8783 ft | 220 kts | 330° |
| 2026-05-06 02:25 | 40.37426 | 28.83662 | 8637 ft | 220 kts | 332° |
| 2026-05-06 02:25 | 40.38837 | 28.83027 | 8466 ft | 214 kts | 356° |
| 2026-05-06 02:25 | 40.40331 | 28.83175 | 8419 ft | 218 kts | 6° |
| 2026-05-06 02:26 | 40.41837 | 28.83433 | 8371 ft | 218 kts | 6° |
| 2026-05-06 02:26 | 40.43339 | 28.83694 | 8332 ft | 218 kts | 6° |
| 2026-05-06 02:26 | 40.44840 | 28.83957 | 8271 ft | 217 kts | 6° |
| 2026-05-06 02:26 | 40.46340 | 28.84222 | 8223 ft | 218 kts | 6° |
| 2026-05-06 02:27 | 40.47837 | 28.84490 | 8175 ft | 218 kts | 6° |
| 2026-05-06 02:27 | 40.49321 | 28.84754 | 8128 ft | 218 kts | 6° |
| 2026-05-06 02:27 | 40.50821 | 28.85016 | 8079 ft | 218 kts | 5° |
| 2026-05-06 02:27 | 40.52348 | 28.85284 | 8029 ft | 219 kts | 5° |
| 2026-05-06 02:28 | 40.53832 | 28.85544 | 7989 ft | 217 kts | 5° |
| 2026-05-06 02:28 | 40.55352 | 28.85813 | 7929 ft | 218 kts | 6° |
| 2026-05-06 02:28 | 40.56853 | 28.86080 | 7883 ft | 218 kts | 6° |
| 2026-05-06 02:28 | 40.58361 | 28.86347 | 7834 ft | 218 kts | 6° |
| 2026-05-06 02:29 | 40.59862 | 28.86612 | 7775 ft | 218 kts | 6° |
| 2026-05-06 02:29 | 40.61362 | 28.86899 | 7669 ft | 220 kts | 11° |
| 2026-05-06 02:29 | 40.62728 | 28.87791 | 7486 ft | 222 kts | 31° |
| 2026-05-06 02:29 | 40.63968 | 28.88964 | 7220 ft | 223 kts | 31° |
| 2026-05-06 02:30 | 40.65223 | 28.90159 | 6901 ft | 223 kts | 31° |
| 2026-05-06 02:30 | 40.66480 | 28.91361 | 6584 ft | 223 kts | 31° |
| 2026-05-06 02:30 | 40.67739 | 28.92565 | 6270 ft | 223 kts | 31° |
| 2026-05-06 02:30 | 40.68998 | 28.93769 | 5946 ft | 224 kts | 31° |
| 2026-05-06 02:31 | 40.70258 | 28.94977 | 5636 ft | 223 kts | 31° |
| 2026-05-06 02:31 | 40.71486 | 28.96158 | 5508 ft | 214 kts | 31° |
| 2026-05-06 02:31 | 40.72666 | 28.97295 | 5311 ft | 208 kts | 32° |
| 2026-05-06 02:31 | 40.73831 | 28.98418 | 5027 ft | 207 kts | 32° |
| 2026-05-06 02:32 | 40.74991 | 28.99535 | 4719 ft | 207 kts | 32° |
| 2026-05-06 02:32 | 40.76143 | 29.00641 | 4506 ft | 201 kts | 32° |
| 2026-05-06 02:32 | 40.77173 | 29.01856 | 4275 ft | 200 kts | 47° |
| 2026-05-06 02:32 | 40.77905 | 29.03448 | 3877 ft | 208 kts | 65° |
| 2026-05-06 02:33 | 40.78411 | 29.05293 | 3671 ft | 223 kts | 66° |
| 2026-05-06 02:33 | 40.78801 | 29.06591 | 3665 ft | 233 kts | 65° |
| 2026-05-06 02:34 | 40.81856 | 29.12118 | 3234 ft | 228 kts | 70° |
| 2026-05-06 02:34 | 40.82470 | 29.14031 | 2942 ft | 226 kts | 63° |
| 2026-05-06 02:34 | 40.83163 | 29.15886 | 2653 ft | 224 kts | 63° |
| 2026-05-06 02:34 | 40.83847 | 29.17716 | 2369 ft | 220 kts | 64° |
| 2026-05-06 02:35 | 40.84513 | 29.19507 | 2062 ft | 215 kts | 64° |
| 2026-05-06 02:35 | 40.85159 | 29.21255 | 1794 ft | 206 kts | 65° |
| 2026-05-06 02:35 | 40.85766 | 29.22894 | 1510 ft | 191 kts | 65° |
| 2026-05-06 02:35 | 40.86319 | 29.24389 | 1280 ft | 171 kts | 64° |
| 2026-05-06 02:36 | 40.86806 | 29.25710 | 1071 ft | 149 kts | 63° |
| 2026-05-06 02:36 | 40.87242 | 29.26890 | 873 ft | 140 kts | 64° |
| 2026-05-06 02:36 | 40.87665 | 29.28037 | 684 ft | 137 kts | 64° |
| 2026-05-06 02:36 | 40.88081 | 29.29164 | 511 ft | 137 kts | 64° |
| 2026-05-06 02:37 | 40.88497 | 29.30291 | 324 ft | 136 kts | 63° |
| 2026-05-06 02:37 | 40.88888 | 29.31342 | 304 ft | 109 kts | 64° |
| 2026-05-06 02:37 | 40.89165 | 29.32101 | 305 ft | 77 kts | 64° |
| 2026-05-06 02:37 | 40.89313 | 29.32503 | 301 ft | 27 kts | 65° |
| 2026-05-06 02:38 | 40.89395 | 29.32705 | 301 ft | 24 kts | 54° |
| 2026-05-06 02:38 | 40.89513 | 29.32856 | 305 ft | 20 kts | 37° |
| 2026-05-06 02:38 | 40.89627 | 29.32929 | 306 ft | 16 kts | 350° |
| 2026-05-06 02:38 | 40.89644 | 29.32832 | 306 ft | 12 kts | 251° |
| 2026-05-06 02:39 | 40.89600 | 29.32716 | 307 ft | 15 kts | 242° |
| 2026-05-06 02:39 | 40.89552 | 29.32588 | 307 ft | 16 kts | 244° |
| 2026-05-06 02:39 | 40.89502 | 29.32447 | 307 ft | 17 kts | 254° |
| 2026-05-06 02:39 | 40.89505 | 29.32391 | 307 ft | 0 kts | 297° |
| 2026-05-06 02:40 | 40.89511 | 29.32381 | 307 ft | 5 kts | 308° |
| 2026-05-06 02:40 | 40.89543 | 29.32306 | 305 ft | 12 kts | 293° |
| 2026-05-06 02:40 | 40.89592 | 29.32214 | 306 ft | 13 kts | 316° |
| 2026-05-06 02:40 | 40.89596 | 29.32117 | 306 ft | 10 kts | 247° |
| 2026-05-06 02:41 | 40.89589 | 29.32098 | 306 ft | 0 kts | 245° |